createdAt,value
2019-05-03T00:02:28.093Z,-2.78
2019-05-03T00:04:59.206Z,-2.83
2019-05-03T00:07:25.471Z,-2.88
2019-05-03T00:09:52.100Z,-2.80
2019-05-03T00:12:18.444Z,-2.68
2019-05-03T00:14:46.506Z,-2.61
2019-05-03T00:17:13.132Z,-2.56
2019-05-03T00:19:39.381Z,-2.52
2019-05-03T00:22:05.621Z,-2.51
2019-05-03T00:24:32.210Z,-2.49
2019-05-03T00:26:58.533Z,-2.49
2019-05-03T00:29:24.779Z,-2.49
2019-05-03T00:31:51.700Z,-2.38
2019-05-03T00:34:25.677Z,-2.31
2019-05-03T00:36:53.707Z,-2.33
2019-05-03T00:39:24.545Z,-2.36
2019-05-03T00:41:52.099Z,-2.39
2019-05-03T00:44:18.430Z,-2.32
2019-05-03T00:46:44.658Z,-2.31
2019-05-03T00:49:12.018Z,-2.36
2019-05-03T00:51:38.357Z,-2.40
2019-05-03T00:54:04.587Z,-2.45
2019-05-03T00:56:32.148Z,-2.43
2019-05-03T00:58:58.789Z,-2.44
2019-05-03T01:01:25.040Z,-2.46
2019-05-03T01:03:52.591Z,-2.44
2019-05-03T01:06:19.110Z,-2.40
2019-05-03T01:08:45.344Z,-2.35
2019-05-03T01:11:12.628Z,-2.27
2019-05-03T01:13:38.953Z,-2.28
2019-05-03T01:16:07.021Z,-2.13
2019-05-03T01:18:33.245Z,-2.13
2019-05-03T01:20:59.499Z,-1.99
2019-05-03T01:23:25.727Z,-1.98
2019-05-03T01:25:51.988Z,-1.97
2019-05-03T01:28:18.218Z,-2.04
2019-05-03T01:30:44.460Z,-2.05
2019-05-03T01:33:12.111Z,-2.10
2019-05-03T01:35:38.540Z,-1.97
2019-05-03T01:38:04.787Z,-1.96
2019-05-03T01:40:32.579Z,-2.05
2019-05-03T01:42:58.976Z,-2.09
2019-05-03T01:45:25.212Z,-2.10
2019-05-03T01:47:53.289Z,-2.04
2019-05-03T01:50:24.172Z,-2.05
2019-05-03T01:52:52.509Z,-2.14
2019-05-03T01:55:18.751Z,-2.21
2019-05-03T01:57:45.003Z,-2.26
2019-05-03T02:00:13.737Z,-2.24
2019-05-03T02:02:42.032Z,-2.28
2019-05-03T02:05:26.895Z,-2.36
2019-05-03T02:07:53.164Z,-2.37
2019-05-03T02:10:19.397Z,-2.37
2019-05-03T02:12:45.654Z,-2.42
2019-05-03T02:15:12.074Z,-2.41
2019-05-03T02:17:38.352Z,-2.37
2019-05-03T02:20:05.007Z,-2.43
2019-05-03T02:22:31.918Z,-2.46
2019-05-03T02:24:58.340Z,-2.40
2019-05-03T02:27:24.569Z,-2.39
2019-05-03T02:29:52.427Z,-2.38
2019-05-03T02:32:18.780Z,-2.36
2019-05-03T02:34:45.038Z,-2.31
2019-05-03T02:37:13.878Z,-2.35
2019-05-03T02:39:42.500Z,-2.35
2019-05-03T02:42:11.356Z,-2.32
2019-05-03T02:44:36.408Z,-2.28
2019-05-03T02:47:10.391Z,-2.26
2019-05-03T02:49:38.447Z,-2.33
2019-05-03T02:52:06.594Z,-2.33
2019-05-03T02:54:35.131Z,-2.34
2019-05-03T02:57:01.076Z,-2.32
2019-05-03T02:59:27.311Z,-2.32
2019-05-03T03:01:55.827Z,-2.32
2019-05-03T03:04:22.527Z,-2.24
2019-05-03T03:06:50.366Z,-2.34
2019-05-03T03:09:20.023Z,-2.20
2019-05-03T03:11:49.270Z,-2.14
2019-05-03T03:14:17.086Z,-2.10
2019-05-03T03:16:46.992Z,-2.04
2019-05-03T03:19:15.887Z,-2.04
2019-05-03T03:21:46.623Z,-1.98
2019-05-03T03:24:16.857Z,-1.95
2019-05-03T03:26:47.328Z,-1.92
2019-05-03T03:29:16.295Z,-1.90
2019-05-03T03:31:49.404Z,-1.86
2019-05-03T03:34:18.608Z,-1.83
2019-05-03T03:37:00.918Z,-1.79
2019-05-03T03:39:20.486Z,-1.75
2019-05-03T03:41:47.216Z,-1.70
2019-05-03T03:44:16.784Z,-1.64
2019-05-03T03:46:45.413Z,-1.60
2019-05-03T03:49:15.551Z,-1.54
2019-05-03T03:51:45.514Z,-1.49
2019-05-03T03:54:15.626Z,-1.43
2019-05-03T03:56:56.020Z,-1.42
2019-05-03T03:59:15.388Z,-1.42
2019-05-03T04:01:41.421Z,-1.42
2019-05-03T04:04:07.688Z,-1.41
2019-05-03T04:06:42.529Z,-1.40
2019-05-03T04:09:08.990Z,-1.34
2019-05-03T04:11:35.334Z,-1.32
2019-05-03T04:14:01.688Z,-1.32
2019-05-03T04:16:30.041Z,-1.36
2019-05-03T04:18:58.398Z,-1.36
2019-05-03T04:21:25.899Z,-1.24
2019-05-03T04:23:52.202Z,-1.17
2019-05-03T04:26:18.665Z,-1.18
2019-05-03T04:28:46.037Z,-1.05
2019-05-03T04:31:12.278Z,-1.04
2019-05-03T04:33:38.524Z,-1.17
2019-05-03T04:36:05.465Z,-1.31
2019-05-03T04:38:31.906Z,-1.28
2019-05-03T04:40:58.161Z,-1.23
2019-05-03T04:43:26.564Z,-0.99
2019-05-03T04:46:06.238Z,-0.76
2019-05-03T04:48:31.122Z,-0.23
2019-05-03T04:50:57.394Z,0.18
2019-05-03T04:53:25.886Z,0.26
2019-05-03T04:55:51.814Z,0.09
2019-05-03T04:58:18.042Z,-0.19
2019-05-03T05:00:46.535Z,-0.62
2019-05-03T05:03:14.914Z,-0.70
2019-05-03T05:05:40.612Z,-0.82
2019-05-03T05:08:06.890Z,-0.91
2019-05-03T05:10:33.213Z,-0.82
2019-05-03T05:12:59.468Z,-0.79
2019-05-03T05:15:26.646Z,-0.86
2019-05-03T05:17:57.510Z,-0.90
2019-05-03T05:20:25.562Z,-1.00
2019-05-03T05:22:51.787Z,-2.90
2019-05-03T05:25:19.859Z,-0.79
2019-05-03T05:27:51.102Z,-0.70
2019-05-03T05:30:16.073Z,-0.68
2019-05-03T05:32:42.326Z,-0.79
2019-05-03T05:35:08.559Z,-0.86
2019-05-03T05:37:35.209Z,-0.81
2019-05-03T05:40:01.945Z,-0.87
2019-05-03T05:42:28.201Z,-0.79
2019-05-03T05:44:55.670Z,-0.85
2019-05-03T05:47:25.408Z,-0.94
2019-05-03T05:49:56.165Z,-0.95
2019-05-03T05:52:24.377Z,-0.94
2019-05-03T05:54:54.907Z,-0.88
2019-05-03T05:57:25.475Z,-0.45
2019-05-03T06:00:10.025Z,-0.23
2019-05-03T06:02:36.280Z,-0.41
2019-05-03T06:05:04.860Z,-0.60
2019-05-03T06:07:35.019Z,-0.52
2019-05-03T06:10:08.481Z,-1.15
2019-05-03T06:12:39.069Z,-0.60
2019-05-03T06:15:26.715Z,-0.70
2019-05-03T06:17:55.449Z,-0.71
2019-05-03T06:20:32.146Z,-0.68
2019-05-03T06:23:00.353Z,-0.54
2019-05-03T06:25:28.419Z,0.42
2019-05-03T06:27:54.964Z,1.28
2019-05-03T06:30:24.835Z,1.76
2019-05-03T06:32:51.185Z,1.37
2019-05-03T06:35:17.413Z,0.57
2019-05-03T06:37:45.936Z,0.16
2019-05-03T06:40:14.780Z,0.01
2019-05-03T06:42:51.594Z,-0.07
2019-05-03T06:45:11.714Z,-0.16
2019-05-03T06:47:40.286Z,-0.25
2019-05-03T06:50:06.122Z,-0.15
2019-05-03T06:52:32.352Z,0.11
2019-05-03T06:55:00.254Z,0.21
2019-05-03T06:57:26.804Z,0.02
2019-05-03T07:00:11.519Z,0.14
2019-05-03T07:02:39.555Z,0.19
2019-05-03T07:05:26.136Z,0.07
2019-05-03T07:08:09.288Z,0.13
2019-05-03T07:10:38.013Z,-0.08
2019-05-03T07:13:05.122Z,-0.21
2019-05-03T07:15:31.932Z,-0.18
2019-05-03T07:17:58.180Z,-0.02
2019-05-03T07:20:25.544Z,0.21
2019-05-03T07:22:55.714Z,-0.31
2019-05-03T07:25:22.276Z,0.21
2019-05-03T07:27:48.515Z,0.15
2019-05-03T07:30:15.695Z,0.04
2019-05-03T07:32:44.875Z,-0.09
2019-05-03T07:35:11.441Z,0.02
2019-05-03T07:37:37.691Z,0.28
2019-05-03T07:40:05.433Z,0.45
2019-05-03T07:42:31.679Z,0.16
2019-05-03T07:44:57.912Z,0.07
2019-05-03T07:47:24.761Z,-0.09
2019-05-03T07:49:51.955Z,-0.20
2019-05-03T07:52:18.208Z,0.05
2019-05-03T07:54:45.184Z,0.13
2019-05-03T07:57:25.681Z,0.24
2019-05-03T07:59:51.980Z,0.11
2019-05-03T08:02:18.607Z,-0.19
2019-05-03T08:04:44.863Z,-0.33
2019-05-03T08:07:20.579Z,-0.17
2019-05-03T08:09:39.245Z,0.18
2019-05-03T08:12:05.493Z,0.03
2019-05-03T08:14:31.725Z,0.03
2019-05-03T08:16:57.960Z,-0.11
2019-05-03T08:19:26.842Z,-0.01
2019-05-03T08:21:52.339Z,0.36
2019-05-03T08:24:18.600Z,0.41
2019-05-03T08:26:45.419Z,0.48
2019-05-03T08:29:15.979Z,0.50
2019-05-03T08:31:41.640Z,0.18
2019-05-03T08:34:18.589Z,0.10
2019-05-03T08:37:01.453Z,0.24
2019-05-03T08:39:27.822Z,0.39
2019-05-03T08:41:58.370Z,0.38
2019-05-03T08:44:25.164Z,0.19
2019-05-03T08:46:51.532Z,0.42
2019-05-03T08:49:17.736Z,0.45
2019-05-03T08:51:44.409Z,0.53
2019-05-03T08:54:10.718Z,0.81
2019-05-03T08:56:37.023Z,1.02
2019-05-03T08:59:04.684Z,0.94
2019-05-03T09:01:31.138Z,1.32
2019-05-03T09:03:57.482Z,1.27
2019-05-03T09:06:24.801Z,1.35
2019-05-03T09:08:54.235Z,1.02
2019-05-03T09:11:30.837Z,1.24
2019-05-03T09:13:52.577Z,1.27
2019-05-03T09:16:18.959Z,1.18
2019-05-03T09:18:45.539Z,1.67
2019-05-03T09:21:11.824Z,1.62
2019-05-03T09:23:38.062Z,1.48
2019-05-03T09:26:04.748Z,1.28
2019-05-03T09:28:31.146Z,1.15
2019-05-03T09:30:57.391Z,1.25
2019-05-03T09:33:24.880Z,1.48
2019-05-03T09:35:51.379Z,1.55
2019-05-03T09:38:17.601Z,1.44
2019-05-03T09:40:45.459Z,1.52
2019-05-03T09:43:11.831Z,1.56
2019-05-03T09:45:38.077Z,1.49
2019-05-03T09:48:05.671Z,1.70
2019-05-03T09:50:32.289Z,1.33
2019-05-03T09:52:58.534Z,1.31
2019-05-03T09:55:32.527Z,1.21
2019-05-03T09:57:58.801Z,1.43
2019-05-03T10:00:25.067Z,1.81
2019-05-03T10:02:51.308Z,1.47
2019-05-03T10:05:17.571Z,1.27
2019-05-03T10:07:45.575Z,1.17
2019-05-03T10:10:11.920Z,1.06
2019-05-03T10:12:38.168Z,1.19
2019-05-03T10:15:07.018Z,1.11
2019-05-03T10:17:35.328Z,1.37
2019-05-03T10:20:06.875Z,1.20
2019-05-03T10:22:34.886Z,1.18
2019-05-03T10:25:01.288Z,0.99
2019-05-03T10:27:29.345Z,1.25
2019-05-03T10:30:09.070Z,1.30
2019-05-03T10:32:35.503Z,1.38
2019-05-03T10:35:05.672Z,1.50
2019-05-03T10:37:32.885Z,1.31
2019-05-03T10:40:00.840Z,1.25
2019-05-03T10:42:27.079Z,1.43
2019-05-03T10:44:55.437Z,1.45
2019-05-03T10:47:21.467Z,1.77
2019-05-03T10:49:47.713Z,1.98
2019-05-03T10:52:14.996Z,1.65
2019-05-03T10:54:41.382Z,1.67
2019-05-03T10:57:12.583Z,1.53
2019-05-03T10:59:38.838Z,1.81
2019-05-03T11:02:09.428Z,1.98
2019-05-03T11:04:35.765Z,2.13
2019-05-03T11:07:02.034Z,2.25
2019-05-03T11:09:28.269Z,2.11
2019-05-03T11:11:55.567Z,2.40
2019-05-03T11:14:21.952Z,2.67
2019-05-03T11:16:48.193Z,2.75
2019-05-03T11:19:14.603Z,2.88
2019-05-03T11:21:41.072Z,3.16
2019-05-03T11:24:07.306Z,3.35
2019-05-03T11:26:34.905Z,3.26
2019-05-03T11:29:01.613Z,3.30
2019-05-03T11:31:46.312Z,2.81
2019-05-03T11:34:15.105Z,2.78
2019-05-03T11:37:00.074Z,2.83
2019-05-03T11:39:26.306Z,2.97
2019-05-03T11:41:54.339Z,3.09
2019-05-03T11:44:38.410Z,3.21
2019-05-03T11:47:05.831Z,3.30
2019-05-03T11:49:32.281Z,3.18
2019-05-03T11:51:58.509Z,3.03
2019-05-03T11:54:25.096Z,3.03
2019-05-03T11:56:51.904Z,3.13
2019-05-03T11:59:18.171Z,3.09
2019-05-03T12:01:46.225Z,3.18
2019-05-03T12:04:12.488Z,3.54
2019-05-03T12:06:38.716Z,3.57
2019-05-03T12:09:05.782Z,3.56
2019-05-03T12:11:33.853Z,3.25
2019-05-03T12:14:15.164Z,2.99
2019-05-03T12:17:12.313Z,3.01
2019-05-03T12:19:17.024Z,3.18
2019-05-03T12:21:39.950Z,3.28
2019-05-03T12:24:07.101Z,2.88
2019-05-03T12:26:41.549Z,2.56
2019-05-03T12:29:01.985Z,2.52
2019-05-03T12:31:36.964Z,2.62
2019-05-03T12:33:56.389Z,2.81
2019-05-03T12:36:24.659Z,2.64
2019-05-03T12:38:50.773Z,2.86
2019-05-03T12:41:17.028Z,2.74
2019-05-03T12:43:43.261Z,2.60
2019-05-03T12:46:09.516Z,2.79
2019-05-03T12:48:35.758Z,2.84
2019-05-03T12:51:02.448Z,2.69
2019-05-03T12:53:29.156Z,2.66
2019-05-03T12:55:55.500Z,2.88
2019-05-03T12:58:25.322Z,3.05
2019-05-03T13:01:05.183Z,2.71
2019-05-03T13:03:33.528Z,2.48
2019-05-03T13:05:59.760Z,2.28
2019-05-03T13:08:37.056Z,2.24
2019-05-03T13:11:05.323Z,2.27
2019-05-03T13:13:31.924Z,2.44
2019-05-03T13:15:58.176Z,2.45
2019-05-03T13:18:25.264Z,2.49
2019-05-03T13:20:51.669Z,2.62
2019-05-03T13:23:17.916Z,2.50
2019-05-03T13:25:44.772Z,2.65
2019-05-03T13:28:11.210Z,2.56
2019-05-03T13:30:37.481Z,2.68
2019-05-03T13:33:05.856Z,2.67
2019-05-03T13:35:31.917Z,2.83
2019-05-03T13:37:58.178Z,3.01
2019-05-03T13:40:25.004Z,3.13
2019-05-03T13:42:57.196Z,3.18
2019-05-03T13:45:19.990Z,2.55
2019-05-03T13:47:46.291Z,3.07
2019-05-03T13:50:12.517Z,2.98
2019-05-03T13:52:38.772Z,2.66
2019-05-03T13:55:05.487Z,2.66
2019-05-03T13:57:31.911Z,2.48
2019-05-03T13:59:58.161Z,2.51
2019-05-03T14:02:24.416Z,2.57
2019-05-03T14:04:52.909Z,2.33
2019-05-03T14:07:18.807Z,2.40
2019-05-03T14:09:45.323Z,2.54
2019-05-03T14:12:11.703Z,2.69
2019-05-03T14:14:55.320Z,2.78
2019-05-03T14:17:22.607Z,2.93
2019-05-03T14:19:50.667Z,3.01
2019-05-03T14:22:17.301Z,3.17
2019-05-03T14:24:44.571Z,2.84
2019-05-03T14:27:10.997Z,2.93
2019-05-03T14:29:37.279Z,3.04
2019-05-03T14:32:05.288Z,3.02
2019-05-03T14:34:31.582Z,2.91
2019-05-03T14:36:57.846Z,2.64
2019-05-03T14:39:25.363Z,2.70
2019-05-03T14:41:51.758Z,2.57
2019-05-03T14:44:18.383Z,2.55
2019-05-03T14:46:45.813Z,2.51
2019-05-03T14:49:12.428Z,2.50
2019-05-03T14:51:38.682Z,2.37
2019-05-03T14:54:05.820Z,2.26
2019-05-03T14:56:34.829Z,1.85
2019-05-03T14:59:19.698Z,1.54
2019-05-03T15:01:47.748Z,1.32
2019-05-03T15:04:15.138Z,1.26
2019-05-03T15:06:41.653Z,1.02
2019-05-03T15:09:08.091Z,0.98
2019-05-03T15:11:34.575Z,0.83
2019-05-03T15:14:00.862Z,0.73
2019-05-03T15:16:27.095Z,0.77
2019-05-03T15:18:54.840Z,0.71
2019-05-03T15:21:21.282Z,0.79
2019-05-03T15:23:47.573Z,0.67
2019-05-03T15:26:13.818Z,0.73
2019-05-03T15:28:40.066Z,0.77
2019-05-03T15:31:06.321Z,0.86
2019-05-03T15:33:32.570Z,0.88
2019-05-03T15:35:58.797Z,0.89
2019-05-03T15:38:25.055Z,0.89
2019-05-03T15:40:51.288Z,0.92
2019-05-03T15:43:29.043Z,0.82
2019-05-03T15:45:57.324Z,0.81
2019-05-03T15:48:25.375Z,0.83
2019-05-03T15:50:51.606Z,0.93
2019-05-03T15:53:18.764Z,-0.10
2019-05-03T15:55:45.001Z,1.05
2019-05-03T15:58:11.255Z,1.12
2019-05-03T16:00:37.493Z,1.01
2019-05-03T16:03:10.527Z,1.02
2019-05-03T16:05:31.902Z,1.10
2019-05-03T16:07:58.178Z,1.05
2019-05-03T16:10:25.018Z,1.04
2019-05-03T16:12:51.401Z,1.11
2019-05-03T16:15:17.652Z,1.13
2019-05-03T16:17:44.935Z,1.15
2019-05-03T16:20:11.456Z,1.14
2019-05-03T16:22:37.684Z,1.21
2019-05-03T16:25:05.440Z,1.15
2019-05-03T16:27:33.481Z,1.08
2019-05-03T16:29:59.759Z,1.00
2019-05-03T16:32:26.001Z,0.92
2019-05-03T16:34:52.247Z,0.89
2019-05-03T16:37:18.492Z,0.92
2019-05-03T16:39:45.438Z,0.92
2019-05-03T16:42:11.761Z,0.91
2019-05-03T16:44:38.004Z,0.96
2019-05-03T16:47:04.901Z,0.96
2019-05-03T16:49:32.393Z,1.03
2019-05-03T16:51:58.639Z,1.06
2019-05-03T16:54:25.466Z,1.11
2019-05-03T16:56:51.940Z,1.12
2019-05-03T16:59:18.185Z,1.17
2019-05-03T17:01:44.573Z,1.18
2019-05-03T17:04:29.019Z,1.20
2019-05-03T17:07:15.139Z,1.21
2019-05-03T17:09:46.190Z,1.18
2019-05-03T17:12:19.823Z,1.19
2019-05-03T17:14:46.054Z,1.16
2019-05-03T17:17:14.860Z,1.17
2019-05-03T17:19:41.375Z,1.16
2019-05-03T17:22:07.625Z,1.10
2019-05-03T17:24:35.342Z,1.08
2019-05-03T17:27:01.645Z,1.03
2019-05-03T17:29:27.890Z,1.09
2019-05-03T17:31:56.974Z,1.10
2019-05-03T17:34:25.024Z,0.97
2019-05-03T17:36:51.387Z,0.98
2019-05-03T17:39:19.481Z,0.95
2019-05-03T17:41:54.678Z,0.96
2019-05-03T17:44:26.748Z,0.94
2019-05-03T17:46:54.823Z,0.92
2019-05-03T17:49:21.154Z,0.94
2019-05-03T17:51:55.438Z,0.89
2019-05-03T17:54:26.427Z,0.91
2019-05-03T17:57:04.596Z,0.82
2019-05-03T17:59:35.644Z,0.80
2019-05-03T18:02:15.870Z,0.82
2019-05-03T18:04:47.554Z,0.76
2019-05-03T18:07:30.545Z,0.79
2019-05-03T18:09:58.579Z,0.76
2019-05-03T18:12:24.815Z,0.75
2019-05-03T18:14:51.055Z,0.71
2019-05-03T18:17:17.292Z,0.68
2019-05-03T18:19:44.869Z,0.65
2019-05-03T18:22:11.391Z,0.62
2019-05-03T18:24:37.647Z,0.59
2019-05-03T18:27:04.027Z,0.58
2019-05-03T18:29:30.264Z,0.57
2019-05-03T18:31:56.511Z,0.54
2019-05-03T18:34:24.943Z,0.51
2019-05-03T18:36:50.887Z,0.45
2019-05-03T18:39:17.132Z,0.42
2019-05-03T18:41:45.120Z,0.43
2019-05-03T18:44:19.335Z,0.43
2019-05-03T18:46:49.923Z,0.41
2019-05-03T18:49:16.156Z,0.40
2019-05-03T18:51:42.397Z,0.31
2019-05-03T18:54:08.635Z,0.24
2019-05-03T18:56:34.916Z,0.18
2019-05-03T18:59:01.146Z,0.18
2019-05-03T19:01:27.374Z,0.14
2019-05-03T19:03:55.529Z,0.13
2019-05-03T19:06:21.755Z,0.09
2019-05-03T19:09:06.415Z,0.07
2019-05-03T19:11:40.254Z,0.01
2019-05-03T19:14:17.120Z,-0.01
2019-05-03T19:16:54.507Z,-0.01
2019-05-03T19:19:24.591Z,-0.05
2019-05-03T19:21:50.888Z,-0.06
2019-05-03T19:24:17.146Z,-0.07
2019-05-03T19:26:45.047Z,-0.09
2019-05-03T19:29:11.443Z,-0.11
2019-05-03T19:31:37.675Z,-0.12
2019-05-03T19:34:05.935Z,-0.13
2019-05-03T19:36:32.099Z,-0.15
2019-05-03T19:38:58.337Z,-0.17
2019-05-03T19:41:25.154Z,-0.16
2019-05-03T19:43:51.515Z,-0.19
2019-05-03T19:46:17.752Z,-0.23
2019-05-03T19:48:45.339Z,-0.24
2019-05-03T19:51:11.643Z,-0.25
2019-05-03T19:53:45.240Z,-0.26
2019-05-03T19:56:11.485Z,-0.27
2019-05-03T19:58:37.732Z,-0.29
2019-05-03T20:01:22.339Z,-0.33
2019-05-03T20:03:56.030Z,-0.33
2019-05-03T20:06:25.192Z,-0.34
2019-05-03T20:08:53.425Z,-0.35
2019-05-03T20:11:19.670Z,-0.38
2019-05-03T20:13:45.919Z,-0.39
2019-05-03T20:16:12.555Z,-0.41
2019-05-03T20:18:38.798Z,-0.43
2019-05-03T20:21:05.041Z,-0.44
2019-05-03T20:23:31.289Z,-0.46
2019-05-03T20:25:57.525Z,-0.47
2019-05-03T20:28:24.689Z,-0.51
2019-05-03T20:30:51.039Z,-0.55
2019-05-03T20:33:17.295Z,-0.58
2019-05-03T20:35:45.168Z,-0.59
2019-05-03T20:38:11.575Z,-0.69
2019-05-03T20:40:37.804Z,-0.72
2019-05-03T20:43:05.865Z,-0.71
2019-05-03T20:45:36.921Z,-0.71
2019-05-03T20:48:05.377Z,-0.71
2019-05-03T20:50:31.620Z,-0.72
2019-05-03T20:52:57.866Z,-0.73
2019-05-03T20:55:25.623Z,-0.74
2019-05-03T20:57:52.044Z,-0.76
2019-05-03T21:00:21.699Z,-0.76
2019-05-03T21:02:53.340Z,-0.77
2019-05-03T21:05:26.737Z,-0.78
2019-05-03T21:07:45.514Z,-0.80
2019-05-03T21:10:12.362Z,-0.81
2019-05-03T21:12:38.593Z,-0.82
2019-05-03T21:15:08.052Z,-0.84
2019-05-03T21:17:42.065Z,-0.85
2019-05-03T21:20:25.801Z,-0.86
2019-05-03T21:22:52.537Z,-0.89
2019-05-03T21:25:20.596Z,-0.91
2019-05-03T21:27:47.166Z,-0.89
2019-05-03T21:30:15.141Z,-0.88
2019-05-03T21:32:41.472Z,-0.87
2019-05-03T21:35:07.908Z,-0.90
2019-05-03T21:37:34.871Z,-0.91
2019-05-03T21:40:01.191Z,-0.94
2019-05-03T21:42:27.429Z,-0.95
2019-05-03T21:44:55.379Z,-0.96
2019-05-03T21:47:25.817Z,-0.97
2019-05-03T21:49:53.341Z,-0.99
2019-05-03T21:52:19.581Z,-1.02
2019-05-03T21:54:45.823Z,-1.02
2019-05-03T21:57:12.056Z,-1.06
2019-05-03T21:59:38.296Z,-1.07
2019-05-03T22:02:05.134Z,-1.12
2019-05-03T22:04:31.469Z,-1.14
2019-05-03T22:06:57.712Z,-1.14
2019-05-03T22:09:23.941Z,-1.15
2019-05-03T22:11:52.189Z,-1.15
2019-05-03T22:14:20.129Z,-1.15
2019-05-03T22:16:48.169Z,-1.19
2019-05-03T22:19:17.073Z,-1.20
2019-05-03T22:21:55.161Z,-1.20
2019-05-03T22:24:28.839Z,-1.20
2019-05-03T22:27:06.529Z,-1.21
2019-05-03T22:29:31.063Z,-1.22
2019-05-03T22:31:57.288Z,-1.25
2019-05-03T22:34:25.502Z,-1.28
2019-05-03T22:36:51.661Z,-1.32
2019-05-03T22:39:17.900Z,-1.38
2019-05-03T22:41:44.129Z,-1.39
2019-05-03T22:44:10.383Z,-1.41
2019-05-03T22:46:36.617Z,-1.44
2019-05-03T22:49:04.909Z,-1.48
2019-05-03T22:51:31.097Z,-1.51
2019-05-03T22:53:57.344Z,-1.51
2019-05-03T22:56:25.402Z,-1.56
2019-05-03T22:58:51.846Z,-1.54
2019-05-03T23:01:18.079Z,-1.57
2019-05-03T23:03:45.098Z,-1.59
2019-05-03T23:06:20.230Z,-1.62
2019-05-03T23:08:39.475Z,-1.65
2019-05-03T23:11:05.724Z,-1.69
2019-05-03T23:13:31.951Z,-1.70
2019-05-03T23:15:58.197Z,-1.73
2019-05-03T23:18:24.761Z,-1.79
2019-05-03T23:20:58.723Z,-1.84
2019-05-03T23:23:45.451Z,-1.90
2019-05-03T23:26:11.524Z,-1.95
2019-05-03T23:28:37.779Z,-1.99
2019-05-03T23:31:05.372Z,-2.00
2019-05-03T23:33:31.648Z,-2.07
2019-05-03T23:35:57.895Z,-2.13
2019-05-03T23:38:24.717Z,-2.17
2019-05-03T23:40:51.168Z,-2.20
2019-05-03T23:43:17.392Z,-2.23
2019-05-03T23:45:45.282Z,-2.24
2019-05-03T23:48:11.655Z,-2.27
2019-05-03T23:50:37.904Z,-2.34
2019-05-03T23:53:04.916Z,-2.38
2019-05-03T23:55:34.646Z,-2.39
2019-05-03T23:58:01.030Z,-2.42
